Time;durP1;ratioP1;P1;durP2;ratioP2;P2;SDS_P1;SDS_P2;PMS_P1;PMS_P2;Temp;Humidity;BMP_temperature;BMP_pressure;BME280_temperature;BME280_humidity;BME280_pressure;Samples;Min_cycle;Max_cycle;Signal;HPM_P1;HPM_P2
2022/12/18 00:01:59;;;;;;;48.87;24.27;;;-4.40;1.00;;;;;;6254452;28;20235;-49
2022/12/18 00:05:02;;;;;;;50.43;25.17;;;-4.50;1.00;;;;;;6258389;28;20241;-50
2022/12/18 00:08:06;;;;;;;54.83;24.03;;;-4.40;1.00;;;;;;6253017;28;20243;-50
2022/12/18 00:11:13;;;;;;;53.57;22.67;;;-4.50;1.00;;;;;;6254756;28;20364;-49
2022/12/18 00:14:16;;;;;;;44.63;22.47;;;-4.50;1.00;;;;;;6259062;28;20233;-49
2022/12/18 00:17:21;;;;;;;49.10;22.90;;;-4.50;1.00;;;;;;6236132;28;20322;-50
2022/12/18 00:20:25;;;;;;;47.97;23.50;;;-4.40;1.00;;;;;;6234205;28;20767;-55
2022/12/18 00:23:28;;;;;;;46.73;23.13;;;-4.40;1.00;;;;;;6234420;28;20653;-50
2022/12/18 00:26:34;;;;;;;50.67;24.77;;;-4.60;1.00;;;;;;6234497;28;20238;-50
2022/12/18 00:29:37;;;;;;;55.60;24.80;;;-4.60;1.00;;;;;;6233639;28;20238;-50
2022/12/18 00:32:41;;;;;;;48.47;23.50;;;-4.50;1.00;;;;;;6249382;28;20617;-50
2022/12/18 00:35:44;;;;;;;47.03;23.10;;;-4.70;1.00;;;;;;6244400;28;20234;-49
2022/12/18 00:38:48;;;;;;;46.17;20.73;;;-4.50;1.00;;;;;;6257360;28;20246;-50
2022/12/18 00:45:11;;;;;;;47.37;22.87;;;-5.00;1.00;;;;;;6260601;28;20241;-49
2022/12/18 00:48:16;;;;;;;49.23;22.43;;;-4.90;1.00;;;;;;6261825;28;20248;-50
2022/12/18 00:51:19;;;;;;;44.93;22.20;;;-5.20;1.00;;;;;;6258967;28;20230;-49
2022/12/18 00:54:22;;;;;;;44.17;21.63;;;-5.00;1.00;;;;;;6213088;28;20250;-49
2022/12/18 00:57:25;;;;;;;44.17;21.03;;;-5.10;1.00;;;;;;6227236;28;20238;-49
2022/12/18 01:00:28;;;;;;;55.90;24.43;;;-5.10;1.00;;;;;;6238216;28;20265;-50
2022/12/18 01:03:32;;;;;;;48.17;23.47;;;-4.90;1.00;;;;;;6237785;28;20245;-50
2022/12/18 01:06:35;;;;;;;51.43;22.67;;;-5.20;1.00;;;;;;6226537;28;20238;-51
2022/12/18 01:09:38;;;;;;;54.87;25.67;;;-5.30;1.00;;;;;;6235062;28;20501;-50
2022/12/18 01:12:41;;;;;;;54.13;25.97;;;-5.20;1.00;;;;;;6237715;28;20242;-49
2022/12/18 01:15:49;;;;;;;53.13;24.57;;;-4.80;1.00;;;;;;6226372;28;20416;-49
2022/12/18 01:18:55;;;;;;;49.03;24.70;;;-5.10;1.00;;;;;;6212393;28;20235;-49
2022/12/18 01:21:58;;;;;;;44.03;23.10;;;-5.00;1.00;;;;;;6211990;28;20247;-49
2022/12/18 01:25:01;;;;;;;45.37;21.60;;;-4.80;1.00;;;;;;6212654;28;20239;-50
2022/12/18 01:28:04;;;;;;;41.93;21.37;;;-5.00;1.00;;;;;;6220425;28;20615;-49
2022/12/18 01:31:12;;;;;;;43.60;20.70;;;-4.80;1.00;;;;;;6236243;28;20766;-50
2022/12/18 01:34:17;;;;;;;42.97;21.97;;;-5.00;1.00;;;;;;6234521;28;20712;-50
2022/12/18 01:37:20;;;;;;;55.50;23.70;;;-5.00;1.00;;;;;;6230349;28;20238;-49
2022/12/18 01:40:23;;;;;;;47.10;23.47;;;-4.90;1.00;;;;;;6236342;28;20462;-50
2022/12/18 01:43:42;;;;;;;45.07;22.60;;;-5.10;1.00;;;;;;6227240;28;20238;-50
2022/12/18 01:46:45;;;;;;;48.00;22.90;;;-5.20;1.00;;;;;;6219346;28;20246;-50
2022/12/18 01:49:50;;;;;;;43.67;22.43;;;-5.20;1.00;;;;;;6231621;28;20262;-50
2022/12/18 01:52:57;;;;;;;47.73;22.67;;;-5.30;1.00;;;;;;6236009;28;20366;-49
2022/12/18 01:56:00;;;;;;;55.80;23.57;;;-5.20;1.00;;;;;;6221752;28;20489;-50
2022/12/18 01:59:06;;;;;;;53.37;23.90;;;-5.20;1.00;;;;;;6211441;28;20766;-49
2022/12/18 02:02:10;;;;;;;51.40;24.33;;;-5.40;1.00;;;;;;6218981;28;20393;-50
2022/12/18 02:05:18;;;;;;;54.10;24.77;;;-5.30;1.00;;;;;;6236186;28;20818;-50
2022/12/18 02:08:25;;;;;;;54.27;24.37;;;-5.40;1.00;;;;;;6235259;28;20258;-49
2022/12/18 02:11:40;;;;;;;62.57;26.70;;;-5.10;1.00;;;;;;6213808;28;20751;-49
2022/12/18 02:14:50;;;;;;;65.37;27.63;;;-5.10;1.00;;;;;;6211878;28;20247;-50
2022/12/18 02:17:56;;;;;;;65.40;27.97;;;-5.00;1.00;;;;;;6211461;28;20235;-49
2022/12/18 02:21:09;;;;;;;67.37;29.00;;;-5.20;1.00;;;;;;6211760;28;20238;-49
2022/12/18 02:24:25;;;;;;;72.57;29.10;;;-5.00;1.00;;;;;;6234790;28;20231;-50
2022/12/18 02:27:31;;;;;;;68.90;29.33;;;-4.90;1.00;;;;;;6229127;28;20239;-49
2022/12/18 02:30:38;;;;;;;67.60;30.07;;;-5.20;1.00;;;;;;6236699;28;20237;-50
2022/12/18 02:33:45;;;;;;;66.03;28.30;;;-5.10;1.00;;;;;;6228053;28;20250;-50
2022/12/18 02:36:50;;;;;;;63.17;27.10;;;-5.00;1.00;;;;;;6232292;28;20333;-50
2022/12/18 02:39:56;;;;;;;74.53;27.93;;;-5.30;1.00;;;;;;6235183;28;20242;-49
2022/12/18 02:43:09;;;;;;;71.47;30.43;;;-5.40;1.00;;;;;;6235765;28;20253;-51
2022/12/18 02:46:36;;;;;;;70.83;28.03;;;-5.20;1.00;;;;;;6235601;28;20234;-54
2022/12/18 02:49:49;;;;;;;68.63;29.73;;;-5.10;1.00;;;;;;6211305;28;20231;-49
2022/12/18 02:53:03;;;;;;;79.20;31.67;;;-5.10;1.00;;;;;;6212032;28;20228;-49
2022/12/18 02:56:14;;;;;;;72.23;30.50;;;-5.10;1.00;;;;;;6223544;28;20520;-50
2022/12/18 02:59:25;;;;;;;76.77;31.43;;;-5.30;1.00;;;;;;6224355;28;20728;-49
2022/12/18 03:02:35;;;;;;;76.27;30.90;;;-5.20;1.00;;;;;;6225468;28;20637;-50
2022/12/18 03:05:44;;;;;;;71.73;29.33;;;-5.30;1.00;;;;;;6229707;28;20642;-49
2022/12/18 03:08:53;;;;;;;80.57;34.47;;;-5.40;1.00;;;;;;6221129;28;20250;-50
2022/12/18 03:15:28;;;;;;;81.93;31.73;;;-5.10;1.00;;;;;;6219229;28;20237;-49
2022/12/18 03:18:34;;;;;;;78.33;30.73;;;-5.20;1.00;;;;;;6234329;28;20242;-50
2022/12/18 03:21:41;;;;;;;74.80;31.10;;;-4.80;1.00;;;;;;6225327;28;20228;-48
2022/12/18 03:24:46;;;;;;;74.30;30.57;;;-5.10;1.00;;;;;;6210650;28;20231;-50
2022/12/18 03:27:53;;;;;;;66.93;30.97;;;-5.10;1.00;;;;;;6210477;28;20251;-50
2022/12/18 03:31:01;;;;;;;75.57;29.90;;;-5.30;1.00;;;;;;6213562;28;20235;-50
2022/12/18 03:34:09;;;;;;;67.17;28.43;;;-5.30;1.00;;;;;;6234436;28;20253;-49
2022/12/18 03:37:12;;;;;;;67.07;28.97;;;-5.20;1.00;;;;;;6233449;28;20246;-49
2022/12/18 03:40:16;;;;;;;64.97;28.57;;;-5.30;1.00;;;;;;6226652;28;20366;-49
2022/12/18 03:43:27;;;;;;;62.23;27.27;;;-5.30;1.00;;;;;;6225173;28;20239;-50
2022/12/18 03:46:41;;;;;;;61.37;26.03;;;-5.20;1.00;;;;;;6258646;28;20734;-49
2022/12/18 03:49:51;;;;;;;61.07;26.23;;;-5.30;1.00;;;;;;6234817;28;20265;-48
2022/12/18 03:53:01;;;;;;;50.63;24.57;;;-5.40;1.00;;;;;;6234333;28;20238;-50
2022/12/18 03:56:06;;;;;;;54.43;24.50;;;-5.30;1.00;;;;;;6233690;28;20227;-49
2022/12/18 03:59:12;;;;;;;51.40;24.90;;;-5.40;1.00;;;;;;6210832;28;20239;-50
2022/12/18 04:02:18;;;;;;;63.87;28.00;;;-5.40;1.00;;;;;;6223626;28;20227;-49
2022/12/18 04:05:22;;;;;;;55.53;25.27;;;-5.60;1.00;;;;;;6226906;28;20233;-50
2022/12/18 04:08:26;;;;;;;60.13;25.87;;;-5.50;1.00;;;;;;6225093;28;20246;-48
2022/12/18 04:11:29;;;;;;;56.00;24.93;;;-5.70;1.00;;;;;;6210717;28;20292;-49
2022/12/18 04:14:35;;;;;;;52.23;22.40;;;-5.60;1.00;;;;;;6209192;28;20239;-49
2022/12/18 04:17:40;;;;;;;51.27;24.67;;;-5.60;1.00;;;;;;6218982;28;20242;-50
2022/12/18 04:20:43;;;;;;;50.33;22.33;;;-5.40;1.00;;;;;;6236278;28;20388;-49
2022/12/18 04:23:46;;;;;;;48.67;23.40;;;-5.60;1.00;;;;;;6215715;28;20235;-49
2022/12/18 04:26:49;;;;;;;52.73;23.53;;;-5.60;1.00;;;;;;6213934;28;20235;-50
2022/12/18 04:29:52;;;;;;;52.30;22.80;;;-5.80;1.00;;;;;;6212428;28;20231;-49
2022/12/18 04:32:57;;;;;;;55.43;24.47;;;-5.80;1.00;;;;;;6210719;28;20237;-49
2022/12/18 04:35:59;;;;;;;52.27;22.67;;;-5.70;1.00;;;;;;6228908;28;20238;-49
2022/12/18 04:39:03;;;;;;;51.47;24.60;;;-5.90;1.00;;;;;;6236823;28;20718;-49
2022/12/18 04:42:06;;;;;;;53.53;24.37;;;-5.60;1.00;;;;;;6229345;28;20230;-49
2022/12/18 04:45:09;;;;;;;49.80;23.17;;;-5.50;1.00;;;;;;6236261;28;20407;-50
2022/12/18 04:48:14;;;;;;;54.67;24.83;;;-5.60;1.00;;;;;;6233684;28;20234;-50
2022/12/18 04:51:17;;;;;;;45.80;20.67;;;-5.60;1.00;;;;;;6225491;28;20820;-49
2022/12/18 04:54:27;;;;;;;45.93;21.03;;;-5.60;1.00;;;;;;6234851;28;20312;-50
2022/12/18 04:57:30;;;;;;;43.03;21.90;;;-5.60;1.00;;;;;;6235282;28;20262;-48
2022/12/18 05:00:33;;;;;;;46.47;21.67;;;-5.80;1.00;;;;;;6237195;28;20704;-50
2022/12/18 05:03:38;;;;;;;46.57;21.70;;;-5.70;1.00;;;;;;6233092;28;20234;-50
2022/12/18 05:06:42;;;;;;;47.43;21.70;;;-5.70;1.00;;;;;;6230065;28;20620;-51
2022/12/18 05:09:45;;;;;;;45.57;20.93;;;-5.70;1.00;;;;;;6235276;28;20230;-49
2022/12/18 05:12:59;;;;;;;46.87;21.87;;;-5.80;1.00;;;;;;6235175;28;20237;-49
2022/12/18 05:16:03;;;;;;;47.97;22.47;;;-5.60;1.00;;;;;;6235284;28;20227;-50
2022/12/18 05:19:08;;;;;;;49.23;23.00;;;-5.80;1.00;;;;;;6235663;28;20253;-49
2022/12/18 05:22:11;;;;;;;47.70;21.93;;;-5.70;1.00;;;;;;6258124;28;20484;-49
2022/12/18 05:25:14;;;;;;;47.83;21.27;;;-5.60;1.00;;;;;;6260430;28;20594;-51
2022/12/18 05:28:17;;;;;;;53.50;23.40;;;-5.90;1.00;;;;;;6262337;28;20249;-50
2022/12/18 05:31:20;;;;;;;49.83;22.70;;;-5.70;1.00;;;;;;6258911;28;20305;-49
2022/12/18 05:34:25;;;;;;;48.80;21.20;;;-5.70;1.00;;;;;;6253315;28;20226;-50
2022/12/18 05:37:28;;;;;;;48.60;22.67;;;-5.80;1.00;;;;;;6259833;28;20245;-55
2022/12/18 05:40:31;;;;;;;62.57;23.87;;;-5.70;1.00;;;;;;6257393;28;20736;-50
2022/12/18 05:43:36;;;;;;;56.83;22.83;;;-5.70;1.00;;;;;;6253251;28;20245;-50
2022/12/18 05:46:43;;;;;;;53.13;23.37;;;-5.70;1.00;;;;;;6261687;28;20833;-49
2022/12/18 05:49:47;;;;;;;60.40;23.23;;;-6.00;1.00;;;;;;6257837;28;20233;-51
2022/12/18 05:52:50;;;;;;;55.90;24.60;;;-5.70;1.00;;;;;;6258856;28;20575;-49
2022/12/18 05:55:53;;;;;;;58.53;24.13;;;-5.60;1.00;;;;;;6258130;28;20230;-48
2022/12/18 05:58:56;;;;;;;65.77;25.77;;;-5.60;1.00;;;;;;6259264;28;20238;-48
2022/12/18 06:01:59;;;;;;;59.13;25.23;;;-5.50;1.00;;;;;;6254951;28;20623;-49
2022/12/18 06:05:04;;;;;;;52.33;24.03;;;-5.50;1.00;;;;;;6261314;28;20745;-49
2022/12/18 06:08:07;;;;;;;59.93;25.07;;;-5.60;1.00;;;;;;6259234;28;20238;-48
2022/12/18 06:11:10;;;;;;;60.57;26.47;;;-5.60;1.00;;;;;;6258026;28;20612;-49
2022/12/18 06:14:13;;;;;;;60.07;25.53;;;-5.60;1.00;;;;;;6259895;28;20230;-56
2022/12/18 06:17:16;;;;;;;65.57;28.03;;;-5.80;1.00;;;;;;6259695;28;20241;-50
2022/12/18 06:20:20;;;;;;;63.33;25.63;;;-5.70;1.00;;;;;;6257511;28;20445;-49
2022/12/18 06:23:23;;;;;;;59.43;27.10;;;-5.60;1.00;;;;;;6260705;28;20241;-49
2022/12/18 06:26:26;;;;;;;61.73;26.27;;;-6.00;1.00;;;;;;6260308;28;20333;-49
2022/12/18 06:29:30;;;;;;;63.20;27.13;;;-5.80;1.00;;;;;;6259164;28;20246;-49
2022/12/18 06:32:33;;;;;;;65.47;27.20;;;-5.90;1.00;;;;;;6259876;28;20234;-49
2022/12/18 06:35:37;;;;;;;60.67;27.13;;;-6.00;1.00;;;;;;6260494;28;20242;-49
2022/12/18 06:38:42;;;;;;;61.43;27.23;;;-5.60;1.00;;;;;;6258611;28;20576;-51
2022/12/18 06:41:45;;;;;;;70.63;27.50;;;-5.90;1.00;;;;;;6248440;28;20234;-49
2022/12/18 06:44:48;;;;;;;72.53;27.30;;;-5.60;1.00;;;;;;6268764;28;20453;-49
2022/12/18 06:47:51;;;;;;;66.73;26.73;;;-5.80;1.00;;;;;;6259084;28;20245;-50
2022/12/18 06:50:56;;;;;;;62.37;25.63;;;-5.50;1.00;;;;;;6259862;28;20384;-49
2022/12/18 06:53:59;;;;;;;61.37;27.53;;;-5.80;1.00;;;;;;6258542;28;20230;-50
2022/12/18 06:57:02;;;;;;;63.97;25.23;;;-5.50;1.00;;;;;;6259824;28;20245;-49
2022/12/18 07:00:07;;;;;;;58.37;27.07;;;-5.50;1.00;;;;;;6220261;28;20261;-50
2022/12/18 07:03:10;;;;;;;62.23;25.90;;;-5.70;1.00;;;;;;6224357;28;20784;-48
2022/12/18 07:06:20;;;;;;;57.50;25.60;;;-5.60;1.00;;;;;;6239037;28;20238;-49
2022/12/18 07:09:23;;;;;;;67.47;28.07;;;-5.50;1.00;;;;;;6232086;28;20250;-50
2022/12/18 07:12:28;;;;;;;58.13;27.07;;;-5.30;1.00;;;;;;6232368;28;20495;-50
2022/12/18 07:15:30;;;;;;;66.90;27.30;;;-5.50;1.00;;;;;;6232258;28;20265;-50
2022/12/18 07:18:33;;;;;;;72.70;28.27;;;-5.30;1.00;;;;;;6239240;28;20257;-50
2022/12/18 07:21:38;;;;;;;63.60;26.87;;;-5.30;1.00;;;;;;6235735;28;20235;-50
2022/12/18 07:24:41;;;;;;;58.30;26.93;;;-5.30;1.00;;;;;;6235775;28;20246;-50
2022/12/18 07:27:44;;;;;;;58.37;27.20;;;-5.50;1.00;;;;;;6233269;28;20412;-50
2022/12/18 07:30:47;;;;;;;60.40;26.90;;;-5.20;1.00;;;;;;6230009;28;20602;-50
2022/12/18 07:33:51;;;;;;;62.40;26.47;;;-5.30;1.00;;;;;;6221203;28;20788;-49
2022/12/18 07:36:55;;;;;;;64.13;27.27;;;-5.30;1.00;;;;;;6226818;28;20242;-49
2022/12/18 07:39:58;;;;;;;62.63;24.67;;;-5.50;1.00;;;;;;6240825;28;20481;-49
2022/12/18 07:43:01;;;;;;;65.50;27.77;;;-5.30;1.00;;;;;;6235456;28;20242;-50
2022/12/18 07:46:05;;;;;;;57.00;25.27;;;-5.50;1.00;;;;;;6230063;28;20235;-50
2022/12/18 07:49:08;;;;;;;53.73;24.97;;;-5.30;1.00;;;;;;6232539;28;20624;-49
2022/12/18 07:52:13;;;;;;;66.57;25.57;;;-5.50;1.00;;;;;;6232840;28;20241;-49
2022/12/18 07:55:16;;;;;;;59.73;25.93;;;-5.30;1.00;;;;;;6225120;28;20231;-49
2022/12/18 07:58:19;;;;;;;57.30;25.67;;;-5.40;1.00;;;;;;6236625;28;20250;-50
2022/12/18 08:01:22;;;;;;;69.00;27.67;;;-5.40;1.00;;;;;;6230679;28;20231;-48
2022/12/18 08:04:25;;;;;;;57.63;25.00;;;-5.40;1.00;;;;;;6229374;28;20738;-51
2022/12/18 08:07:29;;;;;;;53.60;26.30;;;-5.40;1.00;;;;;;6229046;28;20252;-50
2022/12/18 08:10:33;;;;;;;68.10;27.13;;;-5.20;1.00;;;;;;6231413;28;20282;-50
2022/12/18 08:13:36;;;;;;;57.10;26.50;;;-5.20;1.00;;;;;;6229094;28;20625;-50
2022/12/18 08:16:39;;;;;;;63.73;26.90;;;-5.30;1.00;;;;;;6229916;28;20235;-51
2022/12/18 08:19:42;;;;;;;54.10;25.33;;;-5.30;1.00;;;;;;6231165;28;20241;-50
2022/12/18 08:22:47;;;;;;;53.43;25.20;;;-5.10;1.00;;;;;;6231485;28;20235;-49
2022/12/18 08:25:51;;;;;;;49.20;21.77;;;-5.20;1.00;;;;;;6233087;28;20249;-51
2022/12/18 08:28:54;;;;;;;49.67;21.87;;;-5.10;1.00;;;;;;6233257;28;20245;-50
2022/12/18 08:31:57;;;;;;;50.50;23.60;;;-5.00;1.00;;;;;;6226215;28;20831;-49
2022/12/18 08:35:00;;;;;;;48.47;22.97;;;-5.10;1.00;;;;;;6236084;28;20272;-50
2022/12/18 08:38:05;;;;;;;45.00;22.27;;;-5.20;1.00;;;;;;6236979;28;20241;-50
2022/12/18 08:41:10;;;;;;;41.93;22.47;;;-5.00;1.00;;;;;;6228009;28;20235;-50
2022/12/18 08:47:34;;;;;;;50.67;23.70;;;-5.20;1.00;;;;;;6265906;28;20241;-50
2022/12/18 08:50:37;;;;;;;50.13;23.73;;;-5.40;1.00;;;;;;6253368;28;20238;-50
2022/12/18 08:53:41;;;;;;;40.50;20.90;;;-5.30;1.00;;;;;;6255132;28;20245;-50
2022/12/18 08:56:44;;;;;;;45.20;22.20;;;-5.10;1.00;;;;;;6224084;28;20358;-51
2022/12/18 08:59:48;;;;;;;43.63;22.07;;;-5.00;1.00;;;;;;6232918;28;20235;-51
2022/12/18 09:02:51;;;;;;;42.57;24.07;;;-5.10;1.00;;;;;;6230383;28;20285;-50
2022/12/18 09:05:54;;;;;;;42.00;22.13;;;-5.10;1.00;;;;;;6219554;28;20251;-50
2022/12/18 09:08:58;;;;;;;45.50;22.97;;;-5.00;1.00;;;;;;6232979;28;20257;-50
2022/12/18 09:12:01;;;;;;;44.03;22.63;;;-5.00;1.00;;;;;;6239034;28;20239;-50
2022/12/18 09:15:06;;;;;;;38.30;21.33;;;-5.00;1.00;;;;;;6225969;28;20501;-50
2022/12/18 09:18:10;;;;;;;37.73;21.63;;;-5.10;1.00;;;;;;6258520;28;20687;-50
2022/12/18 09:21:15;;;;;;;42.17;21.50;;;-5.10;1.00;;;;;;6262677;28;20248;-50
2022/12/18 09:24:20;;;;;;;46.17;22.33;;;-4.90;1.00;;;;;;6258026;28;20495;-49
2022/12/18 09:27:23;;;;;;;51.10;22.80;;;-4.90;1.00;;;;;;6256465;28;20616;-50
2022/12/18 09:30:26;;;;;;;44.60;23.50;;;-5.00;1.00;;;;;;6259488;28;20245;-50
2022/12/18 09:33:28;;;;;;;42.90;22.47;;;-4.50;1.00;;;;;;6257759;28;20250;-50
2022/12/18 09:36:31;;;;;;;42.07;21.77;;;-4.50;1.00;;;;;;6251996;28;20250;-50
2022/12/18 09:39:39;;;;;;;47.17;23.13;;;-4.50;1.00;;;;;;6260748;28;20241;-50
2022/12/18 09:42:46;;;;;;;48.47;23.60;;;-4.20;1.00;;;;;;6259683;28;20322;-50
2022/12/18 09:45:54;;;;;;;52.47;22.10;;;-4.20;1.00;;;;;;6255676;28;20253;-50
2022/12/18 09:49:00;;;;;;;44.20;23.00;;;-4.30;1.00;;;;;;6261372;28;20252;-50
2022/12/18 09:52:11;;;;;;;46.97;23.03;;;-4.30;1.00;;;;;;6257909;28;20223;-49
2022/12/18 09:55:25;;;;;;;42.93;21.47;;;-4.10;1.00;;;;;;6227584;28;20223;-50
2022/12/18 09:58:31;;;;;;;46.33;22.20;;;-4.30;1.00;;;;;;6237346;28;20243;-51
2022/12/18 10:01:34;;;;;;;50.50;21.07;;;-4.10;1.00;;;;;;6215581;28;20239;-51
2022/12/18 10:04:55;;;;;;;53.73;23.27;;;-4.20;1.00;;;;;;6213916;28;20311;-49
2022/12/18 10:08:05;;;;;;;50.40;22.70;;;-4.20;1.00;;;;;;6234281;28;20246;-49
2022/12/18 10:11:27;;;;;;;53.67;23.83;;;-4.00;1.00;;;;;;6232584;28;20231;-51
2022/12/18 10:14:37;;;;;;;49.37;23.50;;;-4.10;1.00;;;;;;6234909;28;20234;-51
2022/12/18 10:17:46;;;;;;;43.33;22.33;;;-4.00;1.00;;;;;;6236773;28;20277;-50
2022/12/18 10:20:54;;;;;;;47.03;24.13;;;-3.80;1.00;;;;;;6237920;28;20266;-49
2022/12/18 10:24:09;;;;;;;45.93;22.20;;;-3.80;1.00;;;;;;6220761;28;20242;-50
2022/12/18 10:27:17;;;;;;;48.00;23.83;;;-4.00;1.00;;;;;;6233975;28;20481;-49
2022/12/18 10:30:23;;;;;;;53.40;24.47;;;-3.80;1.00;;;;;;6231436;28;20242;-50
2022/12/18 10:33:31;;;;;;;56.60;24.87;;;-3.90;1.00;;;;;;6227641;28;20249;-50
2022/12/18 10:36:34;;;;;;;55.40;26.13;;;-3.90;1.00;;;;;;6234149;28;20231;-50
2022/12/18 10:39:37;;;;;;;51.87;24.40;;;-3.70;1.00;;;;;;6231299;28;20597;-52
2022/12/18 10:42:43;;;;;;;53.53;26.03;;;-3.70;1.00;;;;;;6233518;28;20606;-50
2022/12/18 10:46:00;;;;;;;55.50;25.63;;;-3.60;1.00;;;;;;6252089;28;20237;-50
2022/12/18 10:49:04;;;;;;;51.03;24.87;;;-3.40;1.00;;;;;;6252077;28;20555;-50
2022/12/18 10:52:15;;;;;;;57.10;25.27;;;-3.60;1.00;;;;;;6258289;28;20654;-49
2022/12/18 10:55:19;;;;;;;48.63;24.63;;;-3.40;1.00;;;;;;6257888;28;20325;-50
2022/12/18 10:58:28;;;;;;;51.13;24.33;;;-3.50;1.00;;;;;;6251810;28;20617;-50
2022/12/18 11:01:47;;;;;;;50.97;23.97;;;-3.30;1.00;;;;;;6257278;28;20257;-50
2022/12/18 11:04:52;;;;;;;51.40;24.97;;;-3.50;1.00;;;;;;6256517;28;20344;-50
2022/12/18 11:07:56;;;;;;;62.33;27.40;;;-3.30;1.00;;;;;;6235371;28;20254;-50
2022/12/18 11:10:59;;;;;;;51.87;25.27;;;-3.30;1.00;;;;;;6232530;28;20238;-50
2022/12/18 11:14:06;;;;;;;59.07;24.90;;;-3.30;1.00;;;;;;6218868;28;20735;-50
2022/12/18 11:17:20;;;;;;;55.60;25.57;;;-3.20;1.00;;;;;;6221788;28;20465;-57
2022/12/18 11:20:33;;;;;;;46.27;23.77;;;-3.30;1.00;;;;;;6251903;28;20238;-50
2022/12/18 11:23:38;;;;;;;52.43;24.30;;;-3.30;1.00;;;;;;6257921;28;20245;-52
2022/12/18 11:26:43;;;;;;;51.47;24.60;;;-3.10;1.00;;;;;;6254088;28;20257;-46
2022/12/18 11:29:50;;;;;;;47.80;23.83;;;-3.30;1.00;;;;;;6251356;28;20241;-50
2022/12/18 11:32:59;;;;;;;43.97;23.67;;;-3.30;1.00;;;;;;6246216;28;20239;-51
2022/12/18 11:36:04;;;;;;;40.60;22.47;;;-3.10;1.00;;;;;;6262783;28;20249;-51
2022/12/18 11:39:16;;;;;;;44.10;22.93;;;-3.20;1.00;;;;;;6258340;28;20237;-51
2022/12/18 11:42:25;;;;;;;37.90;21.50;;;-3.40;1.00;;;;;;6251161;28;20618;-50
2022/12/18 11:45:31;;;;;;;42.23;21.67;;;-3.50;1.00;;;;;;6256510;28;20255;-50
2022/12/18 11:48:38;;;;;;;39.63;21.83;;;-3.70;1.00;;;;;;6254300;28;20242;-52
2022/12/18 11:51:48;;;;;;;43.97;22.40;;;-3.40;1.00;;;;;;6242190;28;20226;-51
2022/12/18 11:54:53;;;;;;;38.77;20.87;;;-3.40;1.00;;;;;;6252893;28;20617;-50
2022/12/18 11:58:04;;;;;;;37.17;20.40;;;-3.60;1.00;;;;;;6257349;28;20710;-51
2022/12/18 12:01:18;;;;;;;40.80;22.50;;;-3.60;1.00;;;;;;6240351;28;20598;-49
2022/12/18 12:04:44;;;;;;;38.43;20.20;;;-3.70;1.00;;;;;;6224547;28;20231;-50
2022/12/18 12:07:57;;;;;;;43.73;22.40;;;-3.60;1.00;;;;;;6257916;28;20258;-50
2022/12/18 12:11:06;;;;;;;37.67;21.83;;;-3.40;1.00;;;;;;6256273;28;20233;-51
2022/12/18 12:14:24;;;;;;;36.07;22.63;;;-3.60;1.00;;;;;;6257071;28;20244;-51
2022/12/18 12:17:37;;;;;;;43.73;22.67;;;-3.60;1.00;;;;;;6258323;28;20246;-51
2022/12/18 12:20:50;;;;;;;41.17;21.23;;;-3.70;1.00;;;;;;6263181;28;20260;-50
2022/12/18 12:23:59;;;;;;;44.27;21.80;;;-3.60;1.00;;;;;;6255628;28;20242;-49
2022/12/18 12:27:14;;;;;;;43.10;22.80;;;-3.70;1.00;;;;;;6228901;28;20234;-50
2022/12/18 12:30:22;;;;;;;37.90;21.30;;;-3.60;1.00;;;;;;6232853;28;20242;-49
2022/12/18 12:33:40;;;;;;;45.27;22.20;;;-3.60;1.00;;;;;;6231922;28;20241;-51
2022/12/18 12:36:57;;;;;;;43.73;22.23;;;-3.50;1.00;;;;;;6263487;28;20248;-52
2022/12/18 12:40:02;;;;;;;45.87;24.20;;;-3.60;1.00;;;;;;6258356;28;20226;-52
2022/12/18 12:43:32;;;;;;;43.40;22.90;;;-3.60;1.00;;;;;;6266363;28;20718;-51
2022/12/18 12:46:38;;;;;;;41.67;22.87;;;-3.50;1.00;;;;;;6242007;28;20230;-50
2022/12/18 12:49:48;;;;;;;44.73;22.27;;;-3.10;1.00;;;;;;6235478;28;20256;-51
2022/12/18 12:52:56;;;;;;;36.93;20.80;;;-3.10;1.00;;;;;;6236987;28;20825;-50
2022/12/18 12:56:00;;;;;;;40.70;20.03;;;-3.00;1.00;;;;;;6237245;28;20234;-50
2022/12/18 12:59:13;;;;;;;36.67;20.20;;;-3.10;1.00;;;;;;6233456;28;20289;-52
2022/12/18 13:02:23;;;;;;;36.43;20.67;;;-2.90;1.00;;;;;;6235151;28;20310;-50
2022/12/18 13:05:35;;;;;;;36.67;21.83;;;-2.90;1.00;;;;;;6233748;28;20819;-50
2022/12/18 13:08:55;;;;;;;33.60;20.20;;;-2.90;1.00;;;;;;6232892;28;20250;-51
2022/12/18 13:15:38;;;;;;;37.70;21.10;;;-2.90;1.00;;;;;;6259717;28;20241;-51
2022/12/18 13:18:50;;;;;;;36.97;21.47;;;-2.90;1.00;;;;;;6259730;28;20238;-50
2022/12/18 13:21:56;;;;;;;34.97;21.47;;;-3.20;1.00;;;;;;6258257;28;20245;-51
2022/12/18 13:25:00;;;;;;;35.27;21.10;;;-3.10;1.00;;;;;;6257792;28;20746;-51
2022/12/18 13:28:10;;;;;;;36.37;21.20;;;-3.00;1.00;;;;;;6252818;28;20241;-51
2022/12/18 13:31:13;;;;;;;37.87;22.00;;;-3.00;1.00;;;;;;6259691;28;20226;-50
2022/12/18 13:34:19;;;;;;;35.17;20.57;;;-3.00;1.00;;;;;;6258500;28;20372;-51
2022/12/18 13:37:51;;;;;;;40.47;22.57;;;-3.00;1.00;;;;;;6258205;28;20639;-53
2022/12/18 13:40:57;;;;;;;43.33;22.70;;;-3.10;1.00;;;;;;6260050;28;20423;-50
2022/12/18 13:44:13;;;;;;;38.10;21.80;;;-2.80;1.00;;;;;;6260625;28;20241;-51
2022/12/18 13:47:28;;;;;;;36.03;20.97;;;-3.00;1.00;;;;;;6256486;28;21381;-51
2022/12/18 13:50:31;;;;;;;38.60;22.27;;;-2.90;1.00;;;;;;6260115;28;20473;-52
2022/12/18 13:53:45;;;;;;;41.40;22.10;;;-2.70;1.00;;;;;;6258109;28;20242;-50
2022/12/18 13:56:50;;;;;;;31.73;19.97;;;-3.00;1.00;;;;;;6256359;28;20249;-50
2022/12/18 13:59:53;;;;;;;33.77;21.37;;;-3.10;1.00;;;;;;6259207;28;20260;-51
2022/12/18 14:02:57;;;;;;;35.80;21.30;;;-2.90;1.00;;;;;;6250984;28;20253;-50
2022/12/18 14:06:04;;;;;;;38.67;23.17;;;-2.90;1.00;;;;;;6259117;28;20265;-51
2022/12/18 14:09:13;;;;;;;35.97;22.23;;;-3.30;1.00;;;;;;6257764;28;20234;-50
2022/12/18 14:15:48;;;;;;;41.93;24.87;;;-3.40;1.00;;;;;;6233991;28;20237;-50
2022/12/18 14:18:55;;;;;;;44.77;26.23;;;-3.30;1.00;;;;;;6256197;28;20583;-51
2022/12/18 14:22:05;;;;;;;43.80;24.37;;;-3.40;1.00;;;;;;6242634;28;20226;-50
2022/12/18 14:25:17;;;;;;;39.13;23.67;;;-3.50;1.00;;;;;;6253692;28;20230;-49
2022/12/18 14:28:21;;;;;;;38.10;24.03;;;-3.20;1.00;;;;;;6256824;28;20234;-50
2022/12/18 14:31:26;;;;;;;42.53;25.07;;;-3.50;1.00;;;;;;6258128;28;20241;-50
2022/12/18 14:34:29;;;;;;;42.93;24.53;;;-3.50;1.00;;;;;;6256310;28;20912;-51
2022/12/18 14:37:32;;;;;;;43.20;24.97;;;-3.20;1.00;;;;;;6255174;28;20732;-50
2022/12/18 14:40:36;;;;;;;43.27;25.10;;;-3.40;1.00;;;;;;6257119;28;20230;-50
2022/12/18 14:43:41;;;;;;;38.27;23.10;;;-3.10;1.00;;;;;;6257650;28;20238;-50
2022/12/18 14:46:47;;;;;;;36.50;21.90;;;-3.20;1.00;;;;;;6259306;28;20318;-50
2022/12/18 14:49:50;;;;;;;32.97;20.80;;;-3.40;1.00;;;;;;6258287;28;20412;-51
2022/12/18 14:52:53;;;;;;;31.33;21.27;;;-3.40;1.00;;;;;;6256407;28;20620;-52
2022/12/18 14:55:57;;;;;;;29.47;21.10;;;-3.30;1.00;;;;;;6258187;28;20831;-50
2022/12/18 14:59:03;;;;;;;32.53;22.63;;;-3.10;1.00;;;;;;6258265;28;20929;-51
2022/12/18 15:02:19;;;;;;;33.50;21.90;;;-3.20;1.00;;;;;;6255039;28;20245;-52
2022/12/18 15:05:27;;;;;;;37.70;22.83;;;-3.40;1.00;;;;;;6251812;28;20476;-50
2022/12/18 15:08:35;;;;;;;36.93;22.50;;;-3.30;1.00;;;;;;6254693;28;20273;-50
2022/12/18 15:11:47;;;;;;;33.60;22.03;;;-3.50;1.00;;;;;;6255917;28;20234;-51
2022/12/18 15:14:50;;;;;;;34.17;21.80;;;-3.40;1.00;;;;;;6253820;28;20233;-49
2022/12/18 15:17:58;;;;;;;30.37;20.70;;;-3.20;1.00;;;;;;6256062;28;20287;-49
2022/12/18 15:21:10;;;;;;;29.47;19.87;;;-3.50;1.00;;;;;;6254650;28;20260;-51
2022/12/18 15:24:18;;;;;;;34.60;21.33;;;-3.50;1.00;;;;;;6248440;28;20384;-50
2022/12/18 15:27:29;;;;;;;32.57;21.83;;;-3.50;1.00;;;;;;6253845;28;20269;-50
2022/12/18 15:30:32;;;;;;;30.27;20.83;;;-3.40;1.00;;;;;;6252100;28;20234;-50
2022/12/18 15:33:37;;;;;;;31.97;21.37;;;-3.30;1.00;;;;;;6257474;28;20246;-50
2022/12/18 15:36:41;;;;;;;31.77;20.57;;;-3.60;1.00;;;;;;6256620;28;20257;-50
2022/12/18 15:39:44;;;;;;;49.87;31.83;;;-3.50;1.00;;;;;;6254437;28;20461;-50
2022/12/18 15:46:13;;;;;;;50.90;30.03;;;-3.50;1.00;;;;;;6228590;28;20227;-50
2022/12/18 15:49:16;;;;;;;45.80;31.10;;;-3.40;1.00;;;;;;6250493;28;20226;-51
2022/12/18 15:52:25;;;;;;;43.23;28.17;;;-3.20;1.00;;;;;;6257938;28;20233;-51
2022/12/18 15:58:50;;;;;;;112.30;75.83;;;-3.20;1.00;;;;;;6242444;28;20234;-48
2022/12/18 16:01:53;;;;;;;40.37;25.50;;;-3.30;1.00;;;;;;6260999;28;20715;-49
2022/12/18 16:04:57;;;;;;;34.77;22.57;;;-3.50;1.00;;;;;;6249635;28;20249;-51
2022/12/18 16:08:00;;;;;;;48.27;32.43;;;-3.30;1.00;;;;;;6256649;28;20234;-50
2022/12/18 16:11:03;;;;;;;43.43;30.07;;;-3.50;1.00;;;;;;6251796;28;20728;-50
2022/12/18 16:14:18;;;;;;;125.90;82.37;;;-3.30;1.00;;;;;;6253254;28;20226;-56
2022/12/18 16:17:21;;;;;;;53.20;34.83;;;-3.10;1.00;;;;;;6256882;28;20303;-52
2022/12/18 16:20:24;;;;;;;44.07;28.57;;;-3.40;1.00;;;;;;6259866;28;20244;-51